sensor_id;sensor_type;location;lat;lon;timestamp;P1;durP1;ratioP1;P2;durP2;ratioP2
29238;SDS011;16267;48.194;11.546;2022-11-20T00:48:06;6.97;;;3.05;;
29238;SDS011;16267;48.194;11.546;2022-11-20T00:50:32;4.95;;;2.90;;
29238;SDS011;16267;48.194;11.546;2022-11-20T00:52:58;6.28;;;3.40;;
29238;SDS011;16267;48.194;11.546;2022-11-20T00:55:24;3.40;;;3.10;;
29238;SDS011;16267;48.194;11.546;2022-11-20T00:57:50;6.65;;;3.17;;
29238;SDS011;16267;48.194;11.546;2022-11-20T01:00:15;4.22;;;2.83;;
29238;SDS011;16267;48.194;11.546;2022-11-20T01:02:41;5.03;;;3.10;;
29238;SDS011;16267;48.194;11.546;2022-11-20T01:05:13;5.50;;;3.15;;
29238;SDS011;16267;48.194;11.546;2022-11-20T01:07:39;3.90;;;2.22;;
29238;SDS011;16267;48.194;11.546;2022-11-20T01:10:05;6.63;;;3.47;;
29238;SDS011;16267;48.194;11.546;2022-11-20T01:12:31;4.72;;;2.85;;
29238;SDS011;16267;48.194;11.546;2022-11-20T01:14:58;4.35;;;2.85;;
29238;SDS011;16267;48.194;11.546;2022-11-20T01:17:23;5.38;;;3.33;;
29238;SDS011;16267;48.194;11.546;2022-11-20T01:19:49;6.15;;;2.97;;
29238;SDS011;16267;48.194;11.546;2022-11-20T01:22:16;4.40;;;2.80;;
29238;SDS011;16267;48.194;11.546;2022-11-20T01:24:41;5.40;;;3.40;;
29238;SDS011;16267;48.194;11.546;2022-11-20T01:27:07;5.20;;;3.20;;
29238;SDS011;16267;48.194;11.546;2022-11-20T01:29:33;4.65;;;2.88;;
29238;SDS011;16267;48.194;11.546;2022-11-20T01:31:58;5.10;;;3.30;;
29238;SDS011;16267;48.194;11.546;2022-11-20T01:34:24;4.63;;;3.47;;
29238;SDS011;16267;48.194;11.546;2022-11-20T01:36:50;9.57;;;3.30;;
29238;SDS011;16267;48.194;11.546;2022-11-20T01:39:22;4.45;;;3.00;;
29238;SDS011;16267;48.194;11.546;2022-11-20T01:41:50;5.50;;;3.03;;
29238;SDS011;16267;48.194;11.546;2022-11-20T01:44:53;5.60;;;3.25;;
29238;SDS011;16267;48.194;11.546;2022-11-20T01:47:42;2.85;;;2.17;;
29238;SDS011;16267;48.194;11.546;2022-11-20T01:50:19;4.63;;;2.55;;
29238;SDS011;16267;48.194;11.546;2022-11-20T01:52:55;4.05;;;2.80;;
29238;SDS011;16267;48.194;11.546;2022-11-20T01:55:45;5.45;;;2.88;;
29238;SDS011;16267;48.194;11.546;2022-11-20T01:58:18;5.68;;;3.30;;
29238;SDS011;16267;48.194;11.546;2022-11-20T02:00:52;7.30;;;3.20;;
29238;SDS011;16267;48.194;11.546;2022-11-20T02:03:18;5.95;;;3.13;;
29238;SDS011;16267;48.194;11.546;2022-11-20T02:05:52;4.15;;;3.10;;
29238;SDS011;16267;48.194;11.546;2022-11-20T02:08:23;3.72;;;3.10;;
29238;SDS011;16267;48.194;11.546;2022-11-20T02:10:49;5.00;;;3.25;;
29238;SDS011;16267;48.194;11.546;2022-11-20T02:13:15;4.03;;;3.42;;
29238;SDS011;16267;48.194;11.546;2022-11-20T02:16:00;10.15;;;3.40;;
29238;SDS011;16267;48.194;11.546;2022-11-20T02:18:27;6.88;;;3.45;;
29238;SDS011;16267;48.194;11.546;2022-11-20T02:20:54;6.22;;;3.70;;
29238;SDS011;16267;48.194;11.546;2022-11-20T02:23:32;5.18;;;3.53;;
29238;SDS011;16267;48.194;11.546;2022-11-20T02:26:18;7.10;;;3.30;;
29238;SDS011;16267;48.194;11.546;2022-11-20T02:28:45;7.70;;;3.05;;
29238;SDS011;16267;48.194;11.546;2022-11-20T02:31:11;3.65;;;2.95;;
29238;SDS011;16267;48.194;11.546;2022-11-20T02:33:37;5.03;;;3.65;;
29238;SDS011;16267;48.194;11.546;2022-11-20T02:36:03;4.65;;;2.90;;
29238;SDS011;16267;48.194;11.546;2022-11-20T02:38:29;7.10;;;3.08;;
29238;SDS011;16267;48.194;11.546;2022-11-20T02:40:55;7.70;;;3.70;;
29238;SDS011;16267;48.194;11.546;2022-11-20T02:43:20;7.55;;;3.05;;
29238;SDS011;16267;48.194;11.546;2022-11-20T02:45:47;5.15;;;3.70;;
29238;SDS011;16267;48.194;11.546;2022-11-20T02:48:13;3.72;;;2.70;;
29238;SDS011;16267;48.194;11.546;2022-11-20T02:50:38;5.65;;;3.75;;
29238;SDS011;16267;48.194;11.546;2022-11-20T02:53:05;5.22;;;3.65;;
29238;SDS011;16267;48.194;11.546;2022-11-20T02:55:31;8.18;;;3.50;;
29238;SDS011;16267;48.194;11.546;2022-11-20T02:57:57;4.75;;;2.90;;
29238;SDS011;16267;48.194;11.546;2022-11-20T03:00:23;4.97;;;3.08;;
29238;SDS011;16267;48.194;11.546;2022-11-20T03:02:48;5.97;;;3.33;;
29238;SDS011;16267;48.194;11.546;2022-11-20T03:05:14;5.53;;;3.50;;
29238;SDS011;16267;48.194;11.546;2022-11-20T03:07:40;4.78;;;3.45;;
29238;SDS011;16267;48.194;11.546;2022-11-20T03:10:06;6.63;;;3.50;;
29238;SDS011;16267;48.194;11.546;2022-11-20T03:12:32;5.15;;;3.55;;
29238;SDS011;16267;48.194;11.546;2022-11-20T03:14:58;5.03;;;3.13;;
29238;SDS011;16267;48.194;11.546;2022-11-20T03:17:23;8.23;;;3.28;;
29238;SDS011;16267;48.194;11.546;2022-11-20T03:19:49;10.02;;;3.50;;
29238;SDS011;16267;48.194;11.546;2022-11-20T03:22:15;4.05;;;3.30;;
29238;SDS011;16267;48.194;11.546;2022-11-20T03:24:40;7.05;;;3.80;;
29238;SDS011;16267;48.194;11.546;2022-11-20T03:27:06;5.30;;;3.35;;
29238;SDS011;16267;48.194;11.546;2022-11-20T03:29:32;7.13;;;3.25;;
29238;SDS011;16267;48.194;11.546;2022-11-20T03:31:58;4.13;;;2.95;;
29238;SDS011;16267;48.194;11.546;2022-11-20T03:34:24;4.15;;;3.10;;
29238;SDS011;16267;48.194;11.546;2022-11-20T03:36:49;5.20;;;3.03;;
29238;SDS011;16267;48.194;11.546;2022-11-20T03:39:15;6.35;;;2.80;;
29238;SDS011;16267;48.194;11.546;2022-11-20T03:41:41;6.22;;;3.17;;
29238;SDS011;16267;48.194;11.546;2022-11-20T03:44:08;4.03;;;2.72;;
29238;SDS011;16267;48.194;11.546;2022-11-20T03:46:35;5.05;;;2.78;;
29238;SDS011;16267;48.194;11.546;2022-11-20T03:49:01;5.47;;;3.08;;
29238;SDS011;16267;48.194;11.546;2022-11-20T03:51:32;7.20;;;2.90;;
29238;SDS011;16267;48.194;11.546;2022-11-20T03:54:01;3.95;;;2.83;;
29238;SDS011;16267;48.194;11.546;2022-11-20T03:56:30;4.85;;;3.15;;
29238;SDS011;16267;48.194;11.546;2022-11-20T03:58:58;4.47;;;2.70;;
29238;SDS011;16267;48.194;11.546;2022-11-20T04:01:28;4.15;;;3.05;;
29238;SDS011;16267;48.194;11.546;2022-11-20T04:03:57;4.78;;;2.90;;
29238;SDS011;16267;48.194;11.546;2022-11-20T04:06:28;4.15;;;3.20;;
29238;SDS011;16267;48.194;11.546;2022-11-20T04:08:59;5.60;;;3.20;;
29238;SDS011;16267;48.194;11.546;2022-11-20T04:11:29;3.33;;;2.35;;
29238;SDS011;16267;48.194;11.546;2022-11-20T04:14:00;5.30;;;3.28;;
29238;SDS011;16267;48.194;11.546;2022-11-20T04:16:30;4.53;;;2.80;;
29238;SDS011;16267;48.194;11.546;2022-11-20T04:19:01;5.57;;;3.47;;
29238;SDS011;16267;48.194;11.546;2022-11-20T04:21:30;3.50;;;2.72;;
29238;SDS011;16267;48.194;11.546;2022-11-20T04:23:56;4.20;;;2.97;;
29238;SDS011;16267;48.194;11.546;2022-11-20T04:26:23;3.78;;;2.63;;
29238;SDS011;16267;48.194;11.546;2022-11-20T04:28:51;3.60;;;2.58;;
29238;SDS011;16267;48.194;11.546;2022-11-20T04:31:18;3.40;;;2.70;;
29238;SDS011;16267;48.194;11.546;2022-11-20T04:33:47;6.80;;;3.13;;
29238;SDS011;16267;48.194;11.546;2022-11-20T04:36:18;6.07;;;2.72;;
29238;SDS011;16267;48.194;11.546;2022-11-20T04:38:49;7.45;;;3.20;;
29238;SDS011;16267;48.194;11.546;2022-11-20T04:41:20;3.65;;;2.35;;
29238;SDS011;16267;48.194;11.546;2022-11-20T04:43:51;4.63;;;3.15;;
29238;SDS011;16267;48.194;11.546;2022-11-20T04:46:28;6.05;;;3.03;;
29238;SDS011;16267;48.194;11.546;2022-11-20T04:49:03;4.90;;;2.95;;
29238;SDS011;16267;48.194;11.546;2022-11-20T04:51:29;6.03;;;2.80;;
29238;SDS011;16267;48.194;11.546;2022-11-20T04:53:55;5.50;;;2.83;;
29238;SDS011;16267;48.194;11.546;2022-11-20T04:56:21;4.50;;;3.08;;
29238;SDS011;16267;48.194;11.546;2022-11-20T04:58:47;7.55;;;2.97;;
29238;SDS011;16267;48.194;11.546;2022-11-20T05:01:18;6.03;;;3.00;;
29238;SDS011;16267;48.194;11.546;2022-11-20T05:03:49;4.53;;;2.90;;
29238;SDS011;16267;48.194;11.546;2022-11-20T05:06:16;6.80;;;3.08;;
29238;SDS011;16267;48.194;11.546;2022-11-20T05:08:44;8.75;;;2.67;;
29238;SDS011;16267;48.194;11.546;2022-11-20T05:11:11;4.50;;;3.00;;
29238;SDS011;16267;48.194;11.546;2022-11-20T05:13:39;3.70;;;2.72;;
29238;SDS011;16267;48.194;11.546;2022-11-20T05:16:07;5.32;;;2.72;;
29238;SDS011;16267;48.194;11.546;2022-11-20T05:18:38;3.77;;;2.60;;
29238;SDS011;16267;48.194;11.546;2022-11-20T05:21:05;6.35;;;3.28;;
29238;SDS011;16267;48.194;11.546;2022-11-20T05:23:32;6.30;;;2.80;;
29238;SDS011;16267;48.194;11.546;2022-11-20T05:25:59;5.80;;;2.92;;
29238;SDS011;16267;48.194;11.546;2022-11-20T05:28:26;4.78;;;2.92;;
29238;SDS011;16267;48.194;11.546;2022-11-20T05:30:54;3.30;;;2.30;;
29238;SDS011;16267;48.194;11.546;2022-11-20T05:33:20;4.85;;;2.67;;
29238;SDS011;16267;48.194;11.546;2022-11-20T05:35:46;4.82;;;3.08;;
29238;SDS011;16267;48.194;11.546;2022-11-20T05:38:13;5.47;;;3.05;;
29238;SDS011;16267;48.194;11.546;2022-11-20T05:40:39;5.35;;;3.38;;
29238;SDS011;16267;48.194;11.546;2022-11-20T05:43:05;5.35;;;3.20;;
29238;SDS011;16267;48.194;11.546;2022-11-20T05:45:30;3.58;;;2.60;;
29238;SDS011;16267;48.194;11.546;2022-11-20T05:47:59;4.93;;;3.10;;
29238;SDS011;16267;48.194;11.546;2022-11-20T05:50:26;4.22;;;3.28;;
29238;SDS011;16267;48.194;11.546;2022-11-20T05:52:53;5.38;;;3.10;;
29238;SDS011;16267;48.194;11.546;2022-11-20T05:55:18;4.20;;;2.80;;
29238;SDS011;16267;48.194;11.546;2022-11-20T05:57:44;4.80;;;2.90;;
29238;SDS011;16267;48.194;11.546;2022-11-20T06:00:10;5.03;;;2.92;;
29238;SDS011;16267;48.194;11.546;2022-11-20T06:02:36;5.55;;;3.42;;
29238;SDS011;16267;48.194;11.546;2022-11-20T06:05:02;4.20;;;2.70;;
29238;SDS011;16267;48.194;11.546;2022-11-20T06:07:28;3.70;;;2.92;;
29238;SDS011;16267;48.194;11.546;2022-11-20T06:09:54;4.20;;;2.85;;
29238;SDS011;16267;48.194;11.546;2022-11-20T06:12:19;4.00;;;2.83;;
29238;SDS011;16267;48.194;11.546;2022-11-20T06:14:45;4.65;;;2.92;;
29238;SDS011;16267;48.194;11.546;2022-11-20T06:17:11;4.00;;;2.35;;
29238;SDS011;16267;48.194;11.546;2022-11-20T06:19:37;3.38;;;2.95;;
29238;SDS011;16267;48.194;11.546;2022-11-20T06:22:02;5.70;;;2.80;;
29238;SDS011;16267;48.194;11.546;2022-11-20T06:24:28;5.85;;;2.95;;
29238;SDS011;16267;48.194;11.546;2022-11-20T06:26:54;3.15;;;2.80;;
29238;SDS011;16267;48.194;11.546;2022-11-20T06:29:19;4.45;;;3.05;;
29238;SDS011;16267;48.194;11.546;2022-11-20T06:31:45;4.22;;;2.75;;
29238;SDS011;16267;48.194;11.546;2022-11-20T06:34:11;5.93;;;2.83;;
29238;SDS011;16267;48.194;11.546;2022-11-20T06:36:37;3.80;;;2.70;;
29238;SDS011;16267;48.194;11.546;2022-11-20T06:39:02;3.08;;;2.60;;
29238;SDS011;16267;48.194;11.546;2022-11-20T06:41:28;6.00;;;2.75;;
29238;SDS011;16267;48.194;11.546;2022-11-20T06:43:54;3.40;;;2.40;;
29238;SDS011;16267;48.194;11.546;2022-11-20T06:46:20;3.85;;;2.40;;
29238;SDS011;16267;48.194;11.546;2022-11-20T06:48:49;4.35;;;2.70;;
29238;SDS011;16267;48.194;11.546;2022-11-20T06:51:16;4.93;;;2.90;;
29238;SDS011;16267;48.194;11.546;2022-11-20T06:53:42;3.85;;;2.40;;
29238;SDS011;16267;48.194;11.546;2022-11-20T06:56:07;3.80;;;2.70;;
29238;SDS011;16267;48.194;11.546;2022-11-20T06:58:34;3.55;;;2.33;;
29238;SDS011;16267;48.194;11.546;2022-11-20T07:01:02;4.18;;;2.40;;
29238;SDS011;16267;48.194;11.546;2022-11-20T07:03:34;2.95;;;2.10;;
29238;SDS011;16267;48.194;11.546;2022-11-20T07:06:01;3.70;;;2.40;;
29238;SDS011;16267;48.194;11.546;2022-11-20T07:08:27;2.65;;;1.75;;
29238;SDS011;16267;48.194;11.546;2022-11-20T07:10:58;3.85;;;1.98;;
29238;SDS011;16267;48.194;11.546;2022-11-20T07:13:25;7.82;;;1.90;;
29238;SDS011;16267;48.194;11.546;2022-11-20T07:15:54;2.72;;;1.90;;
29238;SDS011;16267;48.194;11.546;2022-11-20T07:18:24;3.45;;;2.05;;
29238;SDS011;16267;48.194;11.546;2022-11-20T07:20:49;3.67;;;2.20;;
29238;SDS011;16267;48.194;11.546;2022-11-20T07:23:15;2.55;;;1.88;;
29238;SDS011;16267;48.194;11.546;2022-11-20T07:25:41;2.92;;;2.15;;
29238;SDS011;16267;48.194;11.546;2022-11-20T07:28:06;3.00;;;1.90;;
29238;SDS011;16267;48.194;11.546;2022-11-20T07:30:32;4.78;;;1.98;;
29238;SDS011;16267;48.194;11.546;2022-11-20T07:32:58;4.00;;;2.22;;
29238;SDS011;16267;48.194;11.546;2022-11-20T07:35:24;3.08;;;2.22;;
29238;SDS011;16267;48.194;11.546;2022-11-20T07:37:50;4.13;;;2.33;;
29238;SDS011;16267;48.194;11.546;2022-11-20T07:40:16;3.85;;;2.40;;
29238;SDS011;16267;48.194;11.546;2022-11-20T07:42:53;5.00;;;2.67;;
29238;SDS011;16267;48.194;11.546;2022-11-20T07:45:20;3.28;;;2.22;;
29238;SDS011;16267;48.194;11.546;2022-11-20T07:47:48;3.30;;;2.40;;
29238;SDS011;16267;48.194;11.546;2022-11-20T07:50:14;5.13;;;2.70;;
29238;SDS011;16267;48.194;11.546;2022-11-20T07:52:41;3.40;;;2.50;;
29238;SDS011;16267;48.194;11.546;2022-11-20T07:55:07;4.20;;;2.42;;
29238;SDS011;16267;48.194;11.546;2022-11-20T07:57:34;4.30;;;2.40;;
29238;SDS011;16267;48.194;11.546;2022-11-20T08:00:00;4.38;;;2.47;;
29238;SDS011;16267;48.194;11.546;2022-11-20T08:02:26;3.13;;;2.33;;
29238;SDS011;16267;48.194;11.546;2022-11-20T08:04:52;5.28;;;2.78;;
29238;SDS011;16267;48.194;11.546;2022-11-20T08:07:17;6.15;;;2.28;;
29238;SDS011;16267;48.194;11.546;2022-11-20T08:09:43;3.53;;;2.28;;
29238;SDS011;16267;48.194;11.546;2022-11-20T08:12:14;4.05;;;3.17;;
29238;SDS011;16267;48.194;11.546;2022-11-20T08:15:04;6.75;;;2.95;;
29238;SDS011;16267;48.194;11.546;2022-11-20T08:17:31;4.80;;;2.85;;
29238;SDS011;16267;48.194;11.546;2022-11-20T08:19:57;3.25;;;2.70;;
29238;SDS011;16267;48.194;11.546;2022-11-20T08:22:23;5.15;;;3.30;;
29238;SDS011;16267;48.194;11.546;2022-11-20T08:24:49;6.72;;;4.10;;
29238;SDS011;16267;48.194;11.546;2022-11-20T08:27:15;6.75;;;3.10;;
29238;SDS011;16267;48.194;11.546;2022-11-20T08:29:41;5.47;;;3.00;;
29238;SDS011;16267;48.194;11.546;2022-11-20T08:32:07;3.28;;;2.55;;
29238;SDS011;16267;48.194;11.546;2022-11-20T08:34:32;6.80;;;3.35;;
29238;SDS011;16267;48.194;11.546;2022-11-20T08:36:58;3.97;;;2.72;;
29238;SDS011;16267;48.194;11.546;2022-11-20T08:39:24;5.40;;;3.00;;
29238;SDS011;16267;48.194;11.546;2022-11-20T08:41:49;4.55;;;2.75;;
29238;SDS011;16267;48.194;11.546;2022-11-20T08:44:15;5.00;;;2.75;;
29238;SDS011;16267;48.194;11.546;2022-11-20T08:46:41;3.92;;;2.28;;
29238;SDS011;16267;48.194;11.546;2022-11-20T08:49:09;3.80;;;2.60;;
29238;SDS011;16267;48.194;11.546;2022-11-20T08:51:37;4.10;;;2.70;;
29238;SDS011;16267;48.194;11.546;2022-11-20T08:54:04;3.63;;;2.55;;
29238;SDS011;16267;48.194;11.546;2022-11-20T08:56:30;4.35;;;2.70;;
29238;SDS011;16267;48.194;11.546;2022-11-20T08:58:56;5.20;;;2.55;;
29238;SDS011;16267;48.194;11.546;2022-11-20T09:01:22;4.43;;;2.60;;
29238;SDS011;16267;48.194;11.546;2022-11-20T09:03:48;5.13;;;2.20;;
29238;SDS011;16267;48.194;11.546;2022-11-20T09:06:15;3.45;;;2.13;;
29238;SDS011;16267;48.194;11.546;2022-11-20T09:08:41;4.03;;;2.22;;
29238;SDS011;16267;48.194;11.546;2022-11-20T09:11:07;2.75;;;2.20;;
29238;SDS011;16267;48.194;11.546;2022-11-20T09:13:34;4.93;;;2.33;;
29238;SDS011;16267;48.194;11.546;2022-11-20T09:16:05;6.40;;;2.65;;
29238;SDS011;16267;48.194;11.546;2022-11-20T09:18:34;1.98;;;1.58;;
29238;SDS011;16267;48.194;11.546;2022-11-20T09:21:12;3.67;;;2.30;;
29238;SDS011;16267;48.194;11.546;2022-11-20T09:23:39;2.95;;;2.05;;
29238;SDS011;16267;48.194;11.546;2022-11-20T09:26:06;3.33;;;2.17;;
29238;SDS011;16267;48.194;11.546;2022-11-20T09:28:35;4.10;;;2.05;;
29238;SDS011;16267;48.194;11.546;2022-11-20T09:31:04;2.67;;;2.03;;
29238;SDS011;16267;48.194;11.546;2022-11-20T09:33:39;5.00;;;2.22;;
29238;SDS011;16267;48.194;11.546;2022-11-20T09:36:05;5.45;;;2.10;;
29238;SDS011;16267;48.194;11.546;2022-11-20T09:38:31;3.30;;;2.30;;
29238;SDS011;16267;48.194;11.546;2022-11-20T09:40:57;3.50;;;2.50;;
29238;SDS011;16267;48.194;11.546;2022-11-20T09:46:51;4.38;;;2.60;;
29238;SDS011;16267;48.194;11.546;2022-11-20T09:54:57;2.78;;;2.08;;
29238;SDS011;16267;48.194;11.546;2022-11-20T09:57:29;4.28;;;1.92;;
29238;SDS011;16267;48.194;11.546;2022-11-20T10:00:04;3.75;;;1.90;;
29238;SDS011;16267;48.194;11.546;2022-11-20T10:05:18;2.85;;;2.00;;
29238;SDS011;16267;48.194;11.546;2022-11-20T10:08:17;3.85;;;2.03;;
29238;SDS011;16267;48.194;11.546;2022-11-20T10:10:47;2.72;;;1.70;;
29238;SDS011;16267;48.194;11.546;2022-11-20T10:19:16;2.22;;;1.63;;
29238;SDS011;16267;48.194;11.546;2022-11-20T10:22:29;3.35;;;2.00;;
29238;SDS011;16267;48.194;11.546;2022-11-20T10:25:23;4.60;;;1.83;;
29238;SDS011;16267;48.194;11.546;2022-11-20T10:31:00;4.03;;;1.90;;
29238;SDS011;16267;48.194;11.546;2022-11-20T10:33:41;3.97;;;1.50;;
29238;SDS011;16267;48.194;11.546;2022-11-20T10:39:01;3.03;;;1.48;;
29238;SDS011;16267;48.194;11.546;2022-11-20T10:41:40;2.17;;;1.40;;
29238;SDS011;16267;48.194;11.546;2022-11-20T10:44:17;3.00;;;1.35;;
29238;SDS011;16267;48.194;11.546;2022-11-20T10:47:08;3.10;;;1.50;;
29238;SDS011;16267;48.194;11.546;2022-11-20T10:49:39;2.35;;;1.15;;
29238;SDS011;16267;48.194;11.546;2022-11-20T10:58:14;2.22;;;1.52;;
29238;SDS011;16267;48.194;11.546;2022-11-20T11:01:11;3.60;;;1.63;;
29238;SDS011;16267;48.194;11.546;2022-11-20T11:03:46;2.47;;;1.13;;
29238;SDS011;16267;48.194;11.546;2022-11-20T11:06:36;1.55;;;1.10;;
29238;SDS011;16267;48.194;11.546;2022-11-20T11:09:16;3.10;;;1.20;;
29238;SDS011;16267;48.194;11.546;2022-11-20T11:11:49;3.53;;;1.13;;
29238;SDS011;16267;48.194;11.546;2022-11-20T11:14:15;2.97;;;1.30;;
29238;SDS011;16267;48.194;11.546;2022-11-20T11:16:54;2.05;;;1.17;;
29238;SDS011;16267;48.194;11.546;2022-11-20T11:19:22;2.85;;;1.30;;
29238;SDS011;16267;48.194;11.546;2022-11-20T11:21:50;2.17;;;1.23;;
29238;SDS011;16267;48.194;11.546;2022-11-20T11:24:23;1.58;;;1.20;;
29238;SDS011;16267;48.194;11.546;2022-11-20T11:26:57;1.35;;;1.10;;
29238;SDS011;16267;48.194;11.546;2022-11-20T11:29:29;6.07;;;1.38;;
29238;SDS011;16267;48.194;11.546;2022-11-20T11:32:03;2.67;;;1.33;;
29238;SDS011;16267;48.194;11.546;2022-11-20T11:34:36;1.40;;;1.00;;
29238;SDS011;16267;48.194;11.546;2022-11-20T11:37:02;2.80;;;1.42;;
29238;SDS011;16267;48.194;11.546;2022-11-20T11:39:29;3.75;;;1.40;;
29238;SDS011;16267;48.194;11.546;2022-11-20T11:41:58;2.90;;;1.20;;
29238;SDS011;16267;48.194;11.546;2022-11-20T11:44:32;1.40;;;1.10;;
29238;SDS011;16267;48.194;11.546;2022-11-20T11:47:25;1.70;;;1.10;;
29238;SDS011;16267;48.194;11.546;2022-11-20T11:52:48;2.45;;;1.38;;
29238;SDS011;16267;48.194;11.546;2022-11-20T11:58:33;2.08;;;1.10;;
29238;SDS011;16267;48.194;11.546;2022-11-20T12:01:26;2.35;;;1.40;;
29238;SDS011;16267;48.194;11.546;2022-11-20T12:07:01;2.15;;;1.40;;
29238;SDS011;16267;48.194;11.546;2022-11-20T12:10:05;3.75;;;1.48;;
29238;SDS011;16267;48.194;11.546;2022-11-20T12:13:15;1.97;;;0.63;;
29238;SDS011;16267;48.194;11.546;2022-11-20T12:15:59;2.38;;;1.00;;
29238;SDS011;16267;48.194;11.546;2022-11-20T12:18:27;2.53;;;1.27;;
29238;SDS011;16267;48.194;11.546;2022-11-20T12:20:57;2.47;;;1.05;;
29238;SDS011;16267;48.194;11.546;2022-11-20T12:23:44;1.48;;;1.02;;
29238;SDS011;16267;48.194;11.546;2022-11-20T12:30:12;1.98;;;1.30;;
29238;SDS011;16267;48.194;11.546;2022-11-20T12:41:15;2.03;;;1.30;;
29238;SDS011;16267;48.194;11.546;2022-11-20T12:47:46;1.95;;;1.20;;
29238;SDS011;16267;48.194;11.546;2022-11-20T12:53:50;3.00;;;1.55;;
29238;SDS011;16267;48.194;11.546;2022-11-20T12:56:56;2.22;;;1.30;;
29238;SDS011;16267;48.194;11.546;2022-11-20T13:02:50;4.53;;;1.50;;
29238;SDS011;16267;48.194;11.546;2022-11-20T13:06:17;2.22;;;1.20;;
29238;SDS011;16267;48.194;11.546;2022-11-20T13:08:52;3.53;;;1.90;;
29238;SDS011;16267;48.194;11.546;2022-11-20T13:11:56;4.90;;;2.67;;
29238;SDS011;16267;48.194;11.546;2022-11-20T13:14:33;3.88;;;2.00;;
29238;SDS011;16267;48.194;11.546;2022-11-20T13:20:01;1.70;;;1.30;;
29238;SDS011;16267;48.194;11.546;2022-11-20T13:22:42;4.97;;;2.20;;
29238;SDS011;16267;48.194;11.546;2022-11-20T13:25:28;3.67;;;1.85;;
29238;SDS011;16267;48.194;11.546;2022-11-20T13:28:01;6.00;;;2.78;;
29238;SDS011;16267;48.194;11.546;2022-11-20T13:30:35;3.25;;;1.90;;
29238;SDS011;16267;48.194;11.546;2022-11-20T13:33:35;5.38;;;2.60;;
29238;SDS011;16267;48.194;11.546;2022-11-20T13:36:04;4.90;;;1.80;;
29238;SDS011;16267;48.194;11.546;2022-11-20T13:38:48;3.30;;;1.88;;
29238;SDS011;16267;48.194;11.546;2022-11-20T13:41:24;3.37;;;1.37;;
29238;SDS011;16267;48.194;11.546;2022-11-20T13:44:13;3.63;;;1.77;;
29238;SDS011;16267;48.194;11.546;2022-11-20T13:46:55;2.80;;;1.65;;
29238;SDS011;16267;48.194;11.546;2022-11-20T13:49:29;3.72;;;1.95;;
29238;SDS011;16267;48.194;11.546;2022-11-20T13:52:03;4.15;;;1.60;;
29238;SDS011;16267;48.194;11.546;2022-11-20T14:01:20;2.53;;;1.75;;
29238;SDS011;16267;48.194;11.546;2022-11-20T14:03:49;2.92;;;1.85;;
29238;SDS011;16267;48.194;11.546;2022-11-20T14:08:54;5.07;;;1.80;;
29238;SDS011;16267;48.194;11.546;2022-11-20T14:11:22;3.65;;;2.05;;
29238;SDS011;16267;48.194;11.546;2022-11-20T14:13:55;3.25;;;2.00;;
29238;SDS011;16267;48.194;11.546;2022-11-20T14:16:44;2.42;;;1.73;;
29238;SDS011;16267;48.194;11.546;2022-11-20T14:21:46;3.83;;;2.17;;
29238;SDS011;16267;48.194;11.546;2022-11-20T14:24:13;4.00;;;2.08;;
29238;SDS011;16267;48.194;11.546;2022-11-20T14:26:47;4.45;;;2.00;;
29238;SDS011;16267;48.194;11.546;2022-11-20T14:29:18;2.30;;;1.70;;
29238;SDS011;16267;48.194;11.546;2022-11-20T14:31:52;3.90;;;2.13;;
29238;SDS011;16267;48.194;11.546;2022-11-20T14:34:27;3.97;;;2.63;;
29238;SDS011;16267;48.194;11.546;2022-11-20T14:37:01;6.38;;;2.05;;
29238;SDS011;16267;48.194;11.546;2022-11-20T14:39:31;3.08;;;2.00;;
29238;SDS011;16267;48.194;11.546;2022-11-20T14:41:59;5.30;;;1.98;;
29238;SDS011;16267;48.194;11.546;2022-11-20T14:44:31;2.53;;;1.90;;
29238;SDS011;16267;48.194;11.546;2022-11-20T14:47:00;3.78;;;2.15;;
29238;SDS011;16267;48.194;11.546;2022-11-20T14:49:29;3.50;;;1.90;;
29238;SDS011;16267;48.194;11.546;2022-11-20T14:52:10;2.33;;;1.60;;
29238;SDS011;16267;48.194;11.546;2022-11-20T14:54:49;2.47;;;1.60;;
29238;SDS011;16267;48.194;11.546;2022-11-20T14:57:38;2.90;;;1.38;;
29238;SDS011;16267;48.194;11.546;2022-11-20T15:02:43;3.83;;;1.80;;
29238;SDS011;16267;48.194;11.546;2022-11-20T15:05:11;2.78;;;1.65;;
29238;SDS011;16267;48.194;11.546;2022-11-20T15:07:39;6.53;;;2.70;;
29238;SDS011;16267;48.194;11.546;2022-11-20T15:10:24;4.47;;;2.28;;
29238;SDS011;16267;48.194;11.546;2022-11-20T15:12:53;6.70;;;3.10;;
29238;SDS011;16267;48.194;11.546;2022-11-20T15:15:26;4.60;;;1.38;;
29238;SDS011;16267;48.194;11.546;2022-11-20T15:18:01;4.65;;;2.25;;
29238;SDS011;16267;48.194;11.546;2022-11-20T15:20:30;6.38;;;2.00;;
29238;SDS011;16267;48.194;11.546;2022-11-20T15:22:58;5.03;;;2.47;;
29238;SDS011;16267;48.194;11.546;2022-11-20T15:25:24;10.05;;;2.85;;
29238;SDS011;16267;48.194;11.546;2022-11-20T15:27:59;3.00;;;1.80;;
29238;SDS011;16267;48.194;11.546;2022-11-20T15:30:25;4.03;;;1.70;;
29238;SDS011;16267;48.194;11.546;2022-11-20T15:32:51;2.63;;;1.70;;
29238;SDS011;16267;48.194;11.546;2022-11-20T15:35:17;3.17;;;1.77;;
29238;SDS011;16267;48.194;11.546;2022-11-20T15:37:43;3.85;;;1.65;;
29238;SDS011;16267;48.194;11.546;2022-11-20T15:40:08;5.88;;;2.03;;
29238;SDS011;16267;48.194;11.546;2022-11-20T15:42:35;3.22;;;1.55;;
29238;SDS011;16267;48.194;11.546;2022-11-20T15:45:01;2.72;;;1.42;;
29238;SDS011;16267;48.194;11.546;2022-11-20T15:47:31;2.50;;;1.25;;
29238;SDS011;16267;48.194;11.546;2022-11-20T15:50:00;3.20;;;1.45;;
29238;SDS011;16267;48.194;11.546;2022-11-20T15:52:27;3.67;;;1.60;;
29238;SDS011;16267;48.194;11.546;2022-11-20T15:54:52;4.03;;;1.50;;
29238;SDS011;16267;48.194;11.546;2022-11-20T15:57:18;5.93;;;2.60;;
29238;SDS011;16267;48.194;11.546;2022-11-20T15:59:44;6.22;;;2.42;;
29238;SDS011;16267;48.194;11.546;2022-11-20T16:02:13;4.80;;;1.92;;
29238;SDS011;16267;48.194;11.546;2022-11-20T16:04:40;3.58;;;1.70;;
29238;SDS011;16267;48.194;11.546;2022-11-20T16:07:07;3.35;;;1.77;;
29238;SDS011;16267;48.194;11.546;2022-11-20T16:09:33;5.28;;;2.10;;
29238;SDS011;16267;48.194;11.546;2022-11-20T16:11:59;5.15;;;2.42;;
29238;SDS011;16267;48.194;11.546;2022-11-20T16:14:25;4.72;;;2.00;;
29238;SDS011;16267;48.194;11.546;2022-11-20T16:17:10;4.53;;;2.10;;
29238;SDS011;16267;48.194;11.546;2022-11-20T16:19:36;5.57;;;2.33;;
29238;SDS011;16267;48.194;11.546;2022-11-20T16:22:02;4.35;;;2.42;;
29238;SDS011;16267;48.194;11.546;2022-11-20T16:24:28;2.22;;;1.50;;
29238;SDS011;16267;48.194;11.546;2022-11-20T16:26:54;2.63;;;1.40;;
29238;SDS011;16267;48.194;11.546;2022-11-20T16:29:21;2.58;;;1.80;;
29238;SDS011;16267;48.194;11.546;2022-11-20T16:31:46;2.50;;;1.80;;
29238;SDS011;16267;48.194;11.546;2022-11-20T16:34:12;4.78;;;2.33;;
29238;SDS011;16267;48.194;11.546;2022-11-20T16:36:41;3.67;;;2.28;;
29238;SDS011;16267;48.194;11.546;2022-11-20T16:39:10;4.03;;;2.17;;
29238;SDS011;16267;48.194;11.546;2022-11-20T16:41:36;3.90;;;2.05;;
29238;SDS011;16267;48.194;11.546;2022-11-20T16:44:06;6.72;;;2.13;;
29238;SDS011;16267;48.194;11.546;2022-11-20T16:46:34;3.80;;;1.85;;
29238;SDS011;16267;48.194;11.546;2022-11-20T16:49:02;2.53;;;1.60;;
29238;SDS011;16267;48.194;11.546;2022-11-20T16:51:31;3.75;;;2.05;;
29238;SDS011;16267;48.194;11.546;2022-11-20T16:54:00;3.33;;;2.20;;
29238;SDS011;16267;48.194;11.546;2022-11-20T16:56:30;3.08;;;2.08;;
29238;SDS011;16267;48.194;11.546;2022-11-20T16:58:57;3.05;;;2.10;;